Steptoe, WA (99174)

7:23 AM PDT on July 29, 2016 (GMT -0700)
St. John Area | | Change Station
Active Advisory: Fire Weather Watch

Elev 2382 ft 47.07 °N, 117.43 °W | Updated 8 minutes ago

Clear
Clear
69.1 °F
Feels Like 69.1 °F
N
4.0
Wind Variable Wind from ENE
Gusts 6.0 mph

Today
High -- | Low -- °F
--% Chance of Precip.
Yesterday
High -- | Low -- °F
Precip. -- in
Pressure 29.96 in
Visibility 10.0 miles
Clouds Clear
Dew Point 50 °F
Humidity 51%
Rainfall 0.00 in
Snow Depth Not available.
5:25 AM 8:25 PM
Waning Crescent, 21% visible
METAR KPUW 291353Z AUTO 00000KT 10SM CLR 20/11 A3002 RMK AO2 SLP145 T02000106
Pressure 29.96 in
Visibility 10.0 miles
Clouds Clear
Dew Point 50 °F
Humidity 51%
Rainfall 0.00 in
Snow Depth Not available.
5:25 AM 8:25 PM
Waning Crescent, 21% visible
METAR KPUW 291353Z AUTO 00000KT 10SM CLR 20/11 A3002 RMK AO2 SLP145 T02000106

10-Day Weather Forecast

Almanac

Astronomy

Jul. 29, 2016 Rise Set
Actual Time
Civil Twilight
Nautical Twilight
Astronomical Twilight
Moon
Length of Visible Light
Length of Day
Tomorrow will be .
, % of the Moon is Illuminated

Today's Extremes

State Highs State Lows

Community

WunderPhotos

Upload Photos

1,928,342 photos uploaded!

WunderBlog® & News

Nearby

Air Quality

  Air Quality AQ Index Pollutant
Not available.

Snow Depth

Station Depth Elevation

Earthquake Activity

City Distance Mag. Time & Date
Minimum magnitude displayed is 2.5.

Coastal Water Temperatures

Place Temperature

Stations

Nearby Weather Stations

Station Location Temp. Windchill Dew Point Humidity Wind Precip. Elev Updated Type
                   

Watches & Warnings

Fire Weather Watch
Issued: 6:01 AM PDT Jul. 29, 2016 – National Weather Service

... Fire Weather Watch in effect from Saturday afternoon through
Saturday evening for wind and low relative humidity for
East Washington Palouse and Spokane area...

The National Weather Service in Spokane has issued a Fire Weather
Watch for wind and low relative humidity... which is in effect
from Saturday afternoon through Saturday evening.

* Affected area: fire weather zone 674 East Washington Palouse
and Spokane area (zone 674).

* Winds: southwest around 15 mph with gusts up to 25 mph.

* Relative humidities: 11 to 22 percent.

* Impacts: dry and breezy conditions will lead to the rapid
spread of any new fire starts.

* Communities: Davenport... Sprague... La Crosse... Spokane...
Rosalia... Colfax... Pullman.

Precautionary/preparedness actions...

A Fire Weather Watch means that critical fire weather conditions
are forecast to occur. Listen for later forecasts and possible
red flag warnings.